< < Back
Terminal Aerodrome Forecast


Current Version              Previous Versions:   1  2  3  4  5  6  7  8  9  

Terminal Aerodrome Forecast

641
FTUS42 KTAE 171100
TAFDHN
TAF
KDHN 171120Z 1712/1812 35006KT P6SM SKC
     FM171500 36007KT P6SM BKN250
     FM180300 33003KT P6SM SCT250=

Latest METAR

621
SAUS70 KWBC 172300
MTRDHN
METAR KDHN 172253Z 31005KT 5SM HZ FEW026 12/06 A3018 RMK AO2 SLP220
T01220056 $


USA.gov is the U.S. government's official web portal to all federal, state and local government web resources and services.